createdAt,value
2022-11-20T00:01:15.857Z,15.82
2022-11-20T00:04:17.717Z,15.60
2022-11-20T00:07:19.704Z,14.05
2022-11-20T00:10:21.650Z,16.10
2022-11-20T00:13:23.690Z,15.40
2022-11-20T00:16:28.234Z,14.73
2022-11-20T00:19:30.073Z,15.98
2022-11-20T00:22:31.953Z,13.27
2022-11-20T00:25:36.579Z,13.52
2022-11-20T00:28:38.633Z,13.75
2022-11-20T00:31:40.557Z,15.07
2022-11-20T00:34:42.442Z,12.63
2022-11-20T00:37:44.320Z,12.85
2022-11-20T00:40:48.844Z,12.70
2022-11-20T00:43:55.693Z,12.98
2022-11-20T00:46:57.588Z,13.63
2022-11-20T00:49:59.473Z,11.77
2022-11-20T00:53:01.366Z,15.23
2022-11-20T00:56:05.950Z,16.65
2022-11-20T00:59:10.280Z,14.02
2022-11-20T01:02:12.190Z,12.65
2022-11-20T01:05:14.137Z,15.07
2022-11-20T01:08:16.030Z,12.73
2022-11-20T01:11:21.086Z,12.20
2022-11-20T01:14:23.067Z,13.70
2022-11-20T01:17:24.979Z,12.30
2022-11-20T01:20:26.853Z,12.75
2022-11-20T01:23:32.337Z,12.95
2022-11-20T01:26:36.714Z,12.38
2022-11-20T01:29:38.585Z,14.02
2022-11-20T01:32:40.420Z,14.15
2022-11-20T01:35:42.339Z,13.48
2022-11-20T01:38:44.419Z,15.63
2022-11-20T01:42:09.818Z,15.37
2022-11-20T01:45:50.218Z,13.80
2022-11-20T01:48:58.306Z,13.80
2022-11-20T01:52:04.351Z,16.88
2022-11-20T01:55:15.957Z,15.18
2022-11-20T01:58:23.051Z,16.05
2022-11-20T02:01:25.302Z,13.75
2022-11-20T02:04:27.240Z,12.60
2022-11-20T02:07:29.836Z,14.75
2022-11-20T02:10:33.085Z,13.93
2022-11-20T02:13:44.715Z,13.70
2022-11-20T02:16:48.951Z,14.40
2022-11-20T02:19:51.032Z,14.48
2022-11-20T02:23:13.177Z,14.83
2022-11-20T02:26:17.206Z,15.85
2022-11-20T02:29:27.005Z,14.43
2022-11-20T02:32:32.186Z,15.07
2022-11-20T02:35:33.997Z,14.35
2022-11-20T02:38:35.942Z,15.27
2022-11-20T02:41:38.709Z,15.32
2022-11-20T02:44:40.600Z,13.40
2022-11-20T02:47:42.437Z,14.73
2022-11-20T02:50:44.388Z,13.57
2022-11-20T02:53:46.337Z,20.85
2022-11-20T02:56:48.263Z,17.60
2022-11-20T02:59:50.089Z,14.85
2022-11-20T03:02:51.970Z,14.68
2022-11-20T03:05:53.851Z,15.30
2022-11-20T03:08:55.775Z,15.13
2022-11-20T03:11:57.752Z,15.70
2022-11-20T03:14:59.647Z,16.13
2022-11-20T03:18:01.540Z,18.63
2022-11-20T03:21:03.637Z,26.60
2022-11-20T03:24:05.858Z,16.83
2022-11-20T03:27:07.852Z,17.70
2022-11-20T03:30:10.354Z,17.35
2022-11-20T03:33:12.260Z,19.63
2022-11-20T03:36:16.560Z,20.25
2022-11-20T03:39:18.606Z,16.98
2022-11-20T03:42:38.840Z,16.20
2022-11-20T03:45:40.669Z,13.70
2022-11-20T03:48:45.325Z,16.00
2022-11-20T03:51:49.390Z,23.67
2022-11-20T03:54:51.240Z,15.40
2022-11-20T03:57:53.187Z,15.50
2022-11-20T04:00:55.054Z,14.30
2022-11-20T04:03:58.204Z,17.52
2022-11-20T04:07:00.161Z,15.18
2022-11-20T04:10:02.097Z,18.50
2022-11-20T04:13:03.991Z,17.75
2022-11-20T04:16:07.605Z,16.20
2022-11-20T04:19:15.140Z,13.90
2022-11-20T04:22:17.037Z,15.20
2022-11-20T04:25:18.948Z,15.52
2022-11-20T04:28:21.292Z,20.63
2022-11-20T04:31:29.197Z,22.45
2022-11-20T04:34:31.202Z,22.42
2022-11-20T04:37:33.125Z,20.30
2022-11-20T04:40:34.978Z,19.77
2022-11-20T04:43:36.838Z,16.27
2022-11-20T04:46:43.625Z,20.27
2022-11-20T04:49:45.458Z,17.83
2022-11-20T04:52:47.337Z,19.75
2022-11-20T04:55:49.258Z,17.52
2022-11-20T04:58:51.270Z,21.60
2022-11-20T05:01:53.250Z,18.37
2022-11-20T05:04:55.145Z,16.37
2022-11-20T05:07:58.537Z,17.98
2022-11-20T05:11:02.376Z,17.38
2022-11-20T05:14:04.309Z,16.05
2022-11-20T05:17:06.289Z,18.33
2022-11-20T05:20:08.867Z,16.67
2022-11-20T05:23:10.833Z,16.25
2022-11-20T05:26:22.335Z,16.15
2022-11-20T05:29:24.218Z,17.70
2022-11-20T05:32:26.552Z,20.40
2022-11-20T05:35:28.426Z,22.17
2022-11-20T05:38:30.771Z,22.50
2022-11-20T05:41:34.612Z,25.48
2022-11-20T05:44:36.507Z,20.73
2022-11-20T05:47:38.384Z,22.60
2022-11-20T05:50:40.305Z,20.02
2022-11-20T05:53:48.040Z,19.88
2022-11-20T05:56:50.666Z,21.83
2022-11-20T05:59:52.580Z,20.10
2022-11-20T06:02:54.557Z,19.25
2022-11-20T06:05:56.506Z,18.05
2022-11-20T06:09:00.014Z,19.02
2022-11-20T06:12:01.936Z,20.27
2022-11-20T06:15:05.170Z,18.15
2022-11-20T06:18:07.152Z,19.25
2022-11-20T06:21:11.598Z,18.40
2022-11-20T06:24:13.486Z,18.90
2022-11-20T06:27:15.649Z,17.65
2022-11-20T06:30:17.642Z,18.15
2022-11-20T06:33:19.536Z,20.03
2022-11-20T06:36:23.645Z,19.48
2022-11-20T06:39:25.509Z,19.90
2022-11-20T06:42:27.404Z,18.73
2022-11-20T06:45:29.301Z,24.70
2022-11-20T06:48:31.513Z,23.80
2022-11-20T06:51:33.515Z,20.83
2022-11-20T06:54:35.314Z,20.38
2022-11-20T06:57:37.272Z,22.23
2022-11-20T07:00:39.222Z,16.08
2022-11-20T07:03:41.834Z,21.23
2022-11-20T07:06:43.732Z,19.30
2022-11-20T07:09:45.601Z,26.15
2022-11-20T07:12:51.796Z,23.23
2022-11-20T07:15:53.721Z,27.75
2022-11-20T07:18:55.587Z,44.70
2022-11-20T07:21:57.493Z,109.30
2022-11-20T07:24:59.368Z,37.05
2022-11-20T07:28:02.023Z,24.17
2022-11-20T07:31:05.489Z,23.13
2022-11-20T07:34:07.373Z,21.65
2022-11-20T07:37:10.582Z,24.48
2022-11-20T07:40:16.668Z,47.78
2022-11-20T07:43:18.541Z,25.83
2022-11-20T07:46:20.472Z,25.77
2022-11-20T07:49:22.400Z,23.00
2022-11-20T07:52:24.740Z,22.43
2022-11-20T07:55:26.565Z,24.15
2022-11-20T07:58:30.431Z,25.27
2022-11-20T08:01:32.312Z,27.02
2022-11-20T08:04:34.344Z,22.58
2022-11-20T08:07:38.372Z,21.50
2022-11-20T08:10:40.338Z,21.45
2022-11-20T08:14:00.771Z,24.70
2022-11-20T08:17:02.792Z,23.02
2022-11-20T08:20:05.104Z,22.50
2022-11-20T08:23:08.624Z,22.05
2022-11-20T08:26:10.496Z,23.38
2022-11-20T08:29:12.438Z,27.35
2022-11-20T08:32:14.413Z,23.93
2022-11-20T08:35:16.419Z,28.27
2022-11-20T08:38:18.317Z,28.73
2022-11-20T08:41:27.864Z,24.95
2022-11-20T08:44:30.050Z,24.67
2022-11-20T08:47:32.065Z,22.23
2022-11-20T08:50:34.283Z,28.43
2022-11-20T08:53:36.145Z,30.48
2022-11-20T08:56:38.092Z,28.08
2022-11-20T09:03:02.981Z,39.85
2022-11-20T09:06:07.536Z,39.88
2022-11-20T09:09:09.377Z,33.20
2022-11-20T09:12:11.535Z,56.13
2022-11-20T09:15:13.591Z,73.80
2022-11-20T09:18:15.527Z,57.90
2022-11-20T09:21:17.830Z,51.75
2022-11-20T09:24:20.065Z,41.25
2022-11-20T09:27:22.687Z,28.90
2022-11-20T09:30:24.890Z,60.53
2022-11-20T09:33:27.675Z,37.97
2022-11-20T09:36:30.009Z,52.08
2022-11-20T09:39:31.979Z,98.97
2022-11-20T09:42:51.220Z,67.73
2022-11-20T09:46:05.821Z,49.90
2022-11-20T09:49:07.661Z,43.30
2022-11-20T09:52:33.607Z,40.65
2022-11-20T09:55:37.250Z,38.05
2022-11-20T09:59:03.438Z,45.42
2022-11-20T10:02:16.586Z,74.18
2022-11-20T10:08:41.785Z,26.58
2022-11-20T10:12:18.237Z,26.70
2022-11-20T10:15:40.990Z,23.70
2022-11-20T10:18:59.344Z,36.70
2022-11-20T10:22:23.051Z,29.88
2022-11-20T10:25:45.687Z,36.15
2022-11-20T10:28:59.286Z,24.45
2022-11-20T10:32:19.669Z,27.77
2022-11-20T10:35:27.623Z,39.20
2022-11-20T10:38:50.674Z,31.20
2022-11-20T10:41:54.772Z,27.13
2022-11-20T10:45:12.478Z,29.65
2022-11-20T10:48:22.541Z,44.17
2022-11-20T10:51:38.148Z,96.30
2022-11-20T10:54:52.711Z,38.47
2022-11-20T10:58:21.179Z,59.88
2022-11-20T11:01:27.580Z,47.58
2022-11-20T11:04:29.457Z,54.65
2022-11-20T11:07:40.561Z,39.10
2022-11-20T11:10:57.428Z,46.70
2022-11-20T11:14:14.400Z,42.78
2022-11-20T11:17:28.346Z,36.53
2022-11-20T11:20:30.831Z,34.65
2022-11-20T11:23:37.539Z,28.85
2022-11-20T11:26:39.635Z,42.28
2022-11-20T11:29:41.577Z,32.50
2022-11-20T11:32:43.789Z,28.90
2022-11-20T11:35:51.381Z,25.97
2022-11-20T11:38:54.754Z,32.88
2022-11-20T11:45:07.519Z,49.33
2022-11-20T11:48:10.576Z,41.50
2022-11-20T11:51:12.396Z,44.58
2022-11-20T11:54:29.671Z,62.67
2022-11-20T11:57:57.544Z,36.83
2022-11-20T12:01:39.986Z,22.88
2022-11-20T12:04:49.874Z,24.67
2022-11-20T12:08:14.530Z,20.27
2022-11-20T12:11:32.068Z,18.73
2022-11-20T12:14:40.391Z,22.65
2022-11-20T12:17:42.248Z,19.70
2022-11-20T12:20:55.083Z,20.67
2022-11-20T12:24:21.733Z,17.77
2022-11-20T12:27:42.068Z,20.50
2022-11-20T12:31:06.780Z,22.90
2022-11-20T12:34:46.680Z,31.80
2022-11-20T12:38:04.311Z,18.88
2022-11-20T12:41:36.317Z,17.77
2022-11-20T12:45:11.837Z,22.75
2022-11-20T12:48:46.490Z,19.83
2022-11-20T12:52:30.444Z,16.88
2022-11-20T12:55:55.861Z,17.00
2022-11-20T12:59:22.799Z,27.40
2022-11-20T13:02:37.917Z,21.38
2022-11-20T13:05:45.824Z,17.60
2022-11-20T13:08:55.650Z,21.70
2022-11-20T13:12:15.174Z,20.02
2022-11-20T13:15:51.715Z,19.20
2022-11-20T13:18:53.865Z,25.98
2022-11-20T13:21:55.921Z,20.27
2022-11-20T13:24:57.822Z,20.93
2022-11-20T13:28:10.387Z,23.98
2022-11-20T13:31:32.447Z,27.05
2022-11-20T13:34:36.416Z,32.97
2022-11-20T13:37:39.234Z,43.15
2022-11-20T13:41:22.086Z,34.10
2022-11-20T13:44:40.260Z,32.67
2022-11-20T13:47:49.798Z,27.52
2022-11-20T13:51:19.088Z,28.65
2022-11-20T13:54:44.866Z,30.88
2022-11-20T13:58:01.160Z,23.88
2022-11-20T14:01:16.179Z,25.23
2022-11-20T14:04:24.249Z,22.52
2022-11-20T14:07:37.180Z,41.67
2022-11-20T14:10:40.568Z,25.42
2022-11-20T14:13:55.133Z,26.23
2022-11-20T14:17:08.811Z,24.73
2022-11-20T14:20:16.470Z,24.98
2022-11-20T14:23:29.976Z,24.15
2022-11-20T14:26:32.749Z,23.40
2022-11-20T14:29:37.440Z,27.35
2022-11-20T14:32:39.403Z,24.70
2022-11-20T14:35:50.538Z,28.00
2022-11-20T14:38:53.757Z,28.60
2022-11-20T14:41:56.023Z,24.50
2022-11-20T14:45:00.321Z,29.15
2022-11-20T14:48:02.282Z,30.85
2022-11-20T14:51:04.184Z,24.17
2022-11-20T14:54:17.862Z,28.92
2022-11-20T14:57:27.324Z,25.52
2022-11-20T15:00:30.464Z,28.83
2022-11-20T15:03:37.824Z,25.58
2022-11-20T15:06:51.889Z,24.75
2022-11-20T15:10:08.993Z,22.60
2022-11-20T15:13:17.163Z,28.45
2022-11-20T15:16:22.331Z,28.63
2022-11-20T15:19:28.027Z,24.17
2022-11-20T15:22:29.854Z,23.25
2022-11-20T15:25:31.861Z,22.75
2022-11-20T15:28:46.228Z,29.63
2022-11-20T15:31:48.073Z,28.25
2022-11-20T15:34:49.916Z,25.20
2022-11-20T15:37:51.799Z,26.73
2022-11-20T15:40:53.659Z,22.20
2022-11-20T15:43:55.470Z,22.65
2022-11-20T15:46:57.424Z,20.00
2022-11-20T15:49:59.512Z,23.25
2022-11-20T15:53:02.724Z,23.02
2022-11-20T15:56:05.291Z,21.33
2022-11-20T15:59:07.319Z,18.75
2022-11-20T16:02:18.672Z,19.93
2022-11-20T16:05:24.069Z,18.63
2022-11-20T16:08:26.116Z,18.45
2022-11-20T16:11:27.992Z,23.13
2022-11-20T16:14:48.343Z,21.10
2022-11-20T16:17:50.278Z,21.85
2022-11-20T16:20:54.643Z,23.15
2022-11-20T16:23:57.944Z,23.42
2022-11-20T16:26:59.886Z,25.10
2022-11-20T16:30:01.809Z,25.55
2022-11-20T16:33:04.502Z,24.60
2022-11-20T16:36:11.224Z,20.30
2022-11-20T16:39:13.515Z,22.15
2022-11-20T16:42:15.355Z,19.02
2022-11-20T16:45:24.735Z,17.60
2022-11-20T16:48:28.056Z,20.95
2022-11-20T16:51:31.330Z,17.98
2022-11-20T16:54:33.175Z,18.92
2022-11-20T16:57:35.248Z,19.40
2022-11-20T17:00:38.295Z,18.73
2022-11-20T17:03:42.042Z,17.52
2022-11-20T17:06:44.658Z,17.65
2022-11-20T17:09:46.510Z,18.90
2022-11-20T17:12:48.461Z,18.88
2022-11-20T17:15:50.396Z,18.90
2022-11-20T17:18:58.172Z,18.58
2022-11-20T17:22:03.102Z,18.50
2022-11-20T17:25:05.309Z,17.42
2022-11-20T17:28:07.148Z,17.58
2022-11-20T17:31:11.656Z,18.00
2022-11-20T17:34:15.456Z,15.57
2022-11-20T17:37:17.488Z,17.02
2022-11-20T17:40:23.206Z,17.30
2022-11-20T17:43:34.330Z,16.52
2022-11-20T17:46:37.592Z,16.30
2022-11-20T17:49:39.408Z,14.35
2022-11-20T17:52:41.339Z,14.13
2022-11-20T17:56:01.708Z,13.93
2022-11-20T17:59:13.748Z,17.70
2022-11-20T18:02:15.716Z,18.95
2022-11-20T18:05:17.671Z,18.10
2022-11-20T18:08:19.524Z,17.85
2022-11-20T18:11:30.303Z,14.70
2022-11-20T18:14:32.738Z,13.35
2022-11-20T18:17:35.382Z,10.75
2022-11-20T18:20:39.964Z,13.55
2022-11-20T18:23:42.132Z,13.18
2022-11-20T18:26:44.723Z,10.77
2022-11-20T18:29:53.703Z,15.05
2022-11-20T18:32:55.814Z,11.40
2022-11-20T18:35:57.671Z,11.53
2022-11-20T18:39:01.746Z,10.02
2022-11-20T18:42:22.461Z,9.13
2022-11-20T18:45:24.303Z,9.27
2022-11-20T18:48:26.149Z,9.30
2022-11-20T18:51:28.026Z,9.32
2022-11-20T18:54:29.897Z,8.63
2022-11-20T18:57:32.244Z,9.05
2022-11-20T19:00:34.128Z,9.82
2022-11-20T19:03:35.984Z,9.00
2022-11-20T19:06:39.664Z,9.40
2022-11-20T19:09:42.746Z,8.85
2022-11-20T19:12:44.643Z,7.63
2022-11-20T19:15:47.949Z,7.32
2022-11-20T19:18:50.311Z,7.20
2022-11-20T19:21:52.986Z,8.40
2022-11-20T19:24:54.882Z,7.90
2022-11-20T19:27:56.834Z,7.13
2022-11-20T19:31:10.034Z,8.43
2022-11-20T19:34:12.215Z,7.82
2022-11-20T19:37:14.112Z,7.67
2022-11-20T19:40:15.985Z,7.57
2022-11-20T19:43:17.867Z,6.10
2022-11-20T19:46:21.737Z,8.40
2022-11-20T19:49:23.735Z,8.73
2022-11-20T19:52:25.748Z,7.90
2022-11-20T19:55:27.600Z,8.60
2022-11-20T19:58:29.799Z,9.10
2022-11-20T20:01:32.156Z,8.37
2022-11-20T20:04:34.144Z,7.75
2022-11-20T20:07:36.081Z,9.40
2022-11-20T20:10:38.328Z,8.80
2022-11-20T20:13:40.633Z,7.68
2022-11-20T20:16:42.821Z,7.70
2022-11-20T20:19:44.714Z,7.45
2022-11-20T20:22:46.712Z,9.65
2022-11-20T20:25:49.139Z,6.82
2022-11-20T20:28:51.590Z,5.63
2022-11-20T20:31:53.443Z,5.55
2022-11-20T20:34:55.290Z,8.32
2022-11-20T20:37:57.238Z,7.60
2022-11-20T20:40:59.764Z,5.40
2022-11-20T20:44:20.531Z,7.60
2022-11-20T20:47:22.466Z,6.20
2022-11-20T20:50:24.361Z,5.75
2022-11-20T20:53:27.518Z,7.25
2022-11-20T20:56:29.355Z,6.68
2022-11-20T20:59:31.224Z,6.10
2022-11-20T21:02:33.199Z,5.38
2022-11-20T21:05:35.059Z,7.10
2022-11-20T21:08:40.165Z,7.28
2022-11-20T21:11:42.719Z,5.22
2022-11-20T21:14:44.573Z,5.25
2022-11-20T21:17:46.452Z,5.72
2022-11-20T21:21:06.906Z,4.88
2022-11-20T21:24:08.924Z,5.65
2022-11-20T21:27:10.866Z,5.70
2022-11-20T21:30:13.202Z,4.78
2022-11-20T21:33:15.060Z,5.75
2022-11-20T21:36:20.399Z,4.82
2022-11-20T21:39:22.488Z,5.63
2022-11-20T21:42:24.426Z,5.23
2022-11-20T21:45:26.249Z,5.60
2022-11-20T21:48:31.968Z,5.80
2022-11-20T21:51:34.040Z,5.38
2022-11-20T21:54:36.303Z,6.63
2022-11-20T21:57:38.187Z,5.28
2022-11-20T22:00:40.061Z,6.32
2022-11-20T22:03:42.759Z,5.10
2022-11-20T22:06:44.667Z,6.50
2022-11-20T22:09:46.576Z,5.30
2022-11-20T22:12:48.495Z,5.78
2022-11-20T22:16:04.610Z,5.70
2022-11-20T22:19:07.099Z,9.07
2022-11-20T22:22:08.992Z,5.25
2022-11-20T22:25:10.839Z,5.55
2022-11-20T22:28:12.770Z,5.47
2022-11-20T22:31:15.241Z,6.60
2022-11-20T22:34:17.258Z,5.82
2022-11-20T22:37:19.129Z,4.23
2022-11-20T22:40:21.042Z,6.00
2022-11-20T22:43:22.868Z,5.03
2022-11-20T22:46:27.060Z,6.07
2022-11-20T22:49:29.128Z,6.32
2022-11-20T22:52:30.960Z,6.37
2022-11-20T22:55:34.166Z,5.78
2022-11-20T22:58:37.648Z,5.03
2022-11-20T23:01:39.577Z,8.05
2022-11-20T23:04:41.457Z,6.60
2022-11-20T23:07:44.009Z,6.28
2022-11-20T23:10:45.967Z,7.68
2022-11-20T23:13:48.120Z,7.88
2022-11-20T23:16:50.221Z,5.77
2022-11-20T23:19:52.139Z,4.93
2022-11-20T23:22:54.001Z,6.80
2022-11-20T23:25:55.832Z,6.07
2022-11-20T23:28:59.088Z,4.90
2022-11-20T23:32:01.035Z,4.32
2022-11-20T23:35:02.917Z,4.68
2022-11-20T23:38:04.849Z,6.10
2022-11-20T23:41:07.099Z,5.88
2022-11-20T23:44:09.147Z,4.78
2022-11-20T23:47:11.056Z,5.27
2022-11-20T23:50:12.995Z,5.18
2022-11-20T23:53:15.309Z,4.43
2022-11-20T23:56:17.223Z,5.35
2022-11-20T23:59:19.090Z,5.97
